Map

Track Data

SID SEASON NUMBER BASIN SUBBASIN NAME ISO_TIME NATURE LAT LON WMO_WIND WMO_PRES WMO_AGENCY TRACK_TYPE DIST2LAND LANDFALL IFLAG USA_AGENCY USA_ATCF_ID USA_LAT USA_LON USA_RECORD USA_STATUS USA_WIND USA_PRES USA_SSHS USA_R34_NE USA_R34_SE USA_R34_SW USA_R34_NW USA_R50_NE USA_R50_SE USA_R50_SW USA_R50_NW USA_R64_NE USA_R64_SE USA_R64_SW USA_R64_NW USA_POCI USA_ROCI USA_RMW USA_EYE TOKYO_LAT TOKYO_LON TOKYO_GRADE TOKYO_WIND TOKYO_PRES TOKYO_R50_DIR TOKYO_R50_LONG TOKYO_R50_SHORT TOKYO_R30_DIR TOKYO_R30_LONG TOKYO_R30_SHORT TOKYO_LAND CMA_LAT CMA_LON CMA_CAT CMA_WIND CMA_PRES HKO_LAT HKO_LON HKO_CAT HKO_WIND HKO_PRES NEWDELHI_LAT NEWDELHI_LON NEWDELHI_GRADE NEWDELHI_WIND NEWDELHI_PRES NEWDELHI_CI NEWDELHI_DP NEWDELHI_POCI REUNION_LAT REUNION_LON REUNION_TYPE REUNION_WIND REUNION_PRES REUNION_TNUM REUNION_CI REUNION_RMW REUNION_R34_NE REUNION_R34_SE REUNION_R34_SW REUNION_R34_NW REUNION_R50_NE REUNION_R50_SE REUNION_R50_SW REUNION_R50_NW REUNION_R64_NE REUNION_R64_SE REUNION_R64_SW REUNION_R64_NW BOM_LAT BOM_LON BOM_TYPE BOM_WIND BOM_PRES BOM_TNUM BOM_CI BOM_RMW BOM_R34_NE BOM_R34_SE BOM_R34_SW BOM_R34_NW BOM_R50_NE BOM_R50_SE BOM_R50_SW BOM_R50_NW BOM_R64_NE BOM_R64_SE BOM_R64_SW BOM_R64_NW BOM_ROCI BOM_POCI BOM_EYE BOM_POS_METHOD BOM_PRES_METHOD NADI_LAT NADI_LON NADI_CAT NADI_WIND NADI_PRES WELLINGTON_LAT WELLINGTON_LON WELLINGTON_WIND WELLINGTON_PRES DS824_LAT DS824_LON DS824_STAGE DS824_WIND DS824_PRES TD9636_LAT TD9636_LON TD9636_STAGE TD9636_WIND TD9636_PRES TD9635_LAT TD9635_LON TD9635_WIND TD9635_PRES TD9635_ROCI NEUMANN_LAT NEUMANN_LON NEUMANN_CLASS NEUMANN_WIND NEUMANN_PRES MLC_LAT MLC_LON MLC_CLASS MLC_WIND MLC_PRES USA_GUST BOM_GUST BOM_GUST_PER REUNION_GUST REUNION_GUST_PER USA_SEAHGT USA_SEARAD_NE USA_SEARAD_SE USA_SEARAD_SW USA_SEARAD_NW STORM_SPEED STORM_DIR
1934244N10139 1934 47 WP MM NOT_NAMED 1934-08-31 21:00:00 NR 10.0000 138.900 main 1253 1253 __________O___ -1 10.0000 138.900 7 19 333
1934244N10139 1934 47 WP MM NOT_NAMED 1934-09-01 00:00:00 NR 10.8501 138.461 main 1338 1319 __________P___ -1 10.8501 138.461 7 19 332
1934244N10139 1934 47 WP MM NOT_NAMED 1934-09-01 03:00:00 NR 11.6701 137.996 main 1321 1284 __________P___ -1 11.6701 137.996 7 19 329
1934244N10139 1934 47 WP MM NOT_NAMED 1934-09-01 06:00:00 NR 12.4300 137.484 main 1284 1230 __________P___ -1 12.4300 137.484 7 18 323
1934244N10139 1934 47 WP MM NOT_NAMED 1934-09-01 09:00:00 NR 13.1000 136.900 main 1230 1177 __________O___ -1 13.1000 136.900 7 17 315
1934244N10139 1934 47 WP MM NOT_NAMED 1934-09-01 12:00:00 NR 13.6567 136.232 main 1169 1103 __________P___ -1 13.6567 136.232 7 17 306
1934244N10139 1934 47 WP MM NOT_NAMED 1934-09-01 15:00:00 NR 14.1027 135.503 main 1103 1036 __________P___ -1 14.1027 135.503 7 16 299
1934244N10139 1934 47 WP MM NOT_NAMED 1934-09-01 18:00:00 NR 14.4473 134.747 main 1026 961 __________P___ -1 14.4473 134.747 7 16 292
1934244N10139 1934 47 WP MM NOT_NAMED 1934-09-01 21:00:00 NR 14.7000 134.000 main 961 906 __________O___ -1 14.7000 134.000 7 14 289
1934244N10139 1934 47 WP MM NOT_NAMED 1934-09-02 00:00:00 NR 14.9052 133.334 main 896 839 __________P___ -1 14.9052 133.334 7 13 284
1934244N10139 1934 47 WP MM NOT_NAMED 1934-09-02 03:00:00 NR 15.0255 132.679 main 839 774 __________P___ -1 15.0255 132.679 7 13 278
1934244N10139 1934 47 WP MM NOT_NAMED 1934-09-02 06:00:00 NR 15.0832 132.009 main 774 706 __________P___ -1 15.0832 132.009 7 13 273
1934244N10139 1934 47 WP MM NOT_NAMED 1934-09-02 09:00:00 NR 15.1000 131.300 main 706 630 __________O___ -1 15.1000 131.300 7 15 270
1934244N10139 1934 47 WP MM NOT_NAMED 1934-09-02 12:00:00 NR 15.0876 130.464 main 630 542 __________P___ -1 15.0876 130.464 7 16 268
1934244N10139 1934 47 WP MM NOT_NAMED 1934-09-02 15:00:00 NR 15.0441 129.596 main 542 474 __________P___ -1 15.0441 129.596 7 17 267
1934244N10139 1934 47 WP MM NOT_NAMED 1934-09-02 18:00:00 NR 15.0033 128.755 main 474 406 __________P___ -1 15.0033 128.755 7 15 268
1934244N10139 1934 47 WP MM NOT_NAMED 1934-09-02 21:00:00 NR 15.0000 128.000 main 406 345 __________O___ -1 15.0000 128.000 7 13 271
1934244N10139 1934 47 WP MM NOT_NAMED 1934-09-03 00:00:00 NR 15.0360 127.370 main 345 300 __________P___ -1 15.0360 127.370 7 11 276
1934244N10139 1934 47 WP MM NOT_NAMED 1934-09-03 03:00:00 NR 15.1212 126.835 main 291 259 __________P___ -1 15.1212 126.835 7 10 284
1934244N10139 1934 47 WP MM NOT_NAMED 1934-09-03 06:00:00 NR 15.2708 126.382 main 266 248 __________P___ -1 15.2708 126.382 7 9 295
1934244N10139 1934 47 WP MM NOT_NAMED 1934-09-03 09:00:00 NR 15.5000 126.000 main 248 240 __________O___ -1 15.5000 126.000 7 9 309
1934244N10139 1934 47 WP MM NOT_NAMED 1934-09-03 12:00:00 NR 15.8283 125.676 main 251 251 __________P___ -1 15.8283 125.676 7 9 322
1934244N10139 1934 47 WP MM NOT_NAMED 1934-09-03 15:00:00 NR 16.2315 125.412 main 273 273 __________P___ -1 16.2315 125.412 7 10 330
1934244N10139 1934 47 WP MM NOT_NAMED 1934-09-03 18:00:00 NR 16.6690 125.167 main 288 255 __________P___ -1 16.6690 125.167 7 10 331
1934244N10139 1934 47 WP MM NOT_NAMED 1934-09-03 21:00:00 NR 17.1000 124.900 main 255 227 __________O___ -1 17.1000 124.900 7 10 324
1934244N10139 1934 47 WP MM NOT_NAMED 1934-09-04 00:00:00 NR 17.4437 124.577 main 227 198 __________P___ -1 17.4437 124.577 7 9 316
1934244N10139 1934 47 WP MM NOT_NAMED 1934-09-04 03:00:00 NR 17.7770 124.223 main 198 170 __________P___ -1 17.7770 124.223 7 10 314
1934244N10139 1934 47 WP MM NOT_NAMED 1934-09-04 06:00:00 NR 18.1217 123.833 main 160 116 __________P___ -1 18.1217 123.833 7 11 313
1934244N10139 1934 47 WP MM NOT_NAMED 1934-09-04 09:00:00 NR 18.5000 123.400 main 116 84 __________O___ -1 18.5000 123.400 7 13 313
1934244N10139 1934 47 WP MM NOT_NAMED 1934-09-04 12:00:00 NR 18.9766 122.863 main 92 85 __________P___ -1 18.9766 122.863 7 14 313
1934244N10139 1934 47 WP MM NOT_NAMED 1934-09-04 15:00:00 NR 19.4815 122.293 main 123 123 __________P___ -1 19.4815 122.293 7 14 313
1934244N10139 1934 47 WP MM NOT_NAMED 1934-09-04 18:00:00 NR 19.9705 121.751 main 172 170 __________P___ -1 19.9705 121.751 7 13 315
1934244N10139 1934 47 WP MM NOT_NAMED 1934-09-04 21:00:00 NR 20.4000 121.300 main 172 134 __________O___ -1 20.4000 121.300 7 10 316
1934244N10139 1934 47 WP MM NOT_NAMED 1934-09-05 00:00:00 NR 20.7138 120.978 main 134 100 __________P___ -1 20.7138 120.978 7 8 318
1934244N10139 1934 47 WP MM NOT_NAMED 1934-09-05 03:00:00 NR 20.9664 120.761 main 100 78 __________P___ -1 20.9664 120.761 7 6 326
1934244N10139 1934 47 WP MM NOT_NAMED 1934-09-05 06:00:00 NR 21.1859 120.638 main 78 56 __________P___ -1 21.1859 120.638 7 5 341
1934244N10139 1934 47 WP MM NOT_NAMED 1934-09-05 09:00:00 NR 21.4000 120.600 main 56 35 __________O___ -1 21.4000 120.600 7 5 0
1934244N10139 1934 47 WP MM NOT_NAMED 1934-09-05 12:00:00 NR 21.6338 120.640 main 35 0 __________P___ -1 21.6338 120.640 7 5 17
1934244N10139 1934 47 WP MM NOT_NAMED 1934-09-05 15:00:00 NR 21.8701 120.754 main 0 0 __________P___ -1 21.8701 120.754 7 5 25
1934244N10139 1934 47 WP MM NOT_NAMED 1934-09-05 18:00:00 NR 22.1213 120.891 main 0 0 __________P___ -1 22.1213 120.891 7 6 23
1934244N10139 1934 47 WP MM NOT_NAMED 1934-09-05 21:00:00 NR 22.4000 121.000 main 10 0 __________O___ -1 22.4000 121.000 7 6 9
1934244N10139 1934 47 WP MM NOT_NAMED 1934-09-06 00:00:00 NR 22.6887 120.987 main 0 0 __________P___ -1 22.6887 120.987 7 6 354
1934244N10139 1934 47 WP MM NOT_NAMED 1934-09-06 03:00:00 NR 23.0100 120.944 main 0 0 __________P___ -1 23.0100 120.944 7 7 353
1934244N10139 1934 47 WP MM NOT_NAMED 1934-09-06 06:00:00 NR 23.3762 120.903 main 0 0 __________P___ -1 23.3762 120.903 7 8 357
1934244N10139 1934 47 WP MM NOT_NAMED 1934-09-06 09:00:00 NR 23.8000 120.900 main 0 0 __________O___ -1 23.8000 120.900 7 10 0
1934244N10139 1934 47 WP MM NOT_NAMED 1934-09-06 12:00:00 NR 24.3327 120.933 main 0 0 __________P___ -1 24.3327 120.933 7 11 5
1934244N10139 1934 47 WP MM NOT_NAMED 1934-09-06 15:00:00 NR 24.9143 121.016 main 0 0 __________P___ -1 24.9143 121.016 7 12 10
1934244N10139 1934 47 WP MM NOT_NAMED 1934-09-06 18:00:00 NR 25.4887 121.165 main 39 39 __________P___ -1 25.4887 121.165 7 11 18
1934244N10139 1934 47 WP MM NOT_NAMED 1934-09-06 21:00:00 NR 26.0000 121.400 main 89 89 __________O___ -1 26.0000 121.400 7 11 31
1934244N10139 1934 47 WP MM NOT_NAMED 1934-09-07 00:00:00 NR 26.3932 121.766 main 135 135 __________P___ -1 26.3932 121.766 7 10 46
1934244N10139 1934 47 WP MM NOT_NAMED 1934-09-07 03:00:00 NR 26.7139 122.211 main 173 172 __________P___ -1 26.7139 122.211 7 10 54
1934244N10139 1934 47 WP MM NOT_NAMED 1934-09-07 06:00:00 NR 26.9776 122.676 main 181 178 __________P___ -1 26.9776 122.676 7 9 58
1934244N10139 1934 47 WP MM NOT_NAMED 1934-09-07 09:00:00 NR 27.2000 123.100 main 191 191 __________O___ -1 27.2000 123.100 7 7 55
1934244N10139 1934 47 WP MM NOT_NAMED 1934-09-07 12:00:00 NR 27.3759 123.314 main 194 194 __________P___ -1 27.3759 123.314 7 5 47
1934244N10139 1934 47 WP MM NOT_NAMED 1934-09-07 15:00:00 NR 27.5236 123.493 main 206 202 __________P___ -1 27.5236 123.493 7 5 50
1934244N10139 1934 47 WP MM NOT_NAMED 1934-09-07 18:00:00 NR 27.6846 123.725 main 216 216 __________P___ -1 27.6846 123.725 7 7 55
1934244N10139 1934 47 WP MM NOT_NAMED 1934-09-07 21:00:00 NR 27.9000 124.100 main 248 248 __________O___ -1 27.9000 124.100 7 9 67
1934244N10139 1934 47 WP MM NOT_NAMED 1934-09-08 00:00:00 NR 28.0387 124.692 main 295 295 __________P___ -1 28.0387 124.692 7 12 73
1934244N10139 1934 47 WP MM NOT_NAMED 1934-09-08 03:00:00 NR 28.2593 125.440 main 345 345 __________P___ -1 28.2593 125.440 7 16 66
1934244N10139 1934 47 WP MM NOT_NAMED 1934-09-08 06:00:00 NR 28.6751 126.317 main 421 357 __________P___ -1 28.6751 126.317 7 20 55
1934244N10139 1934 47 WP MM NOT_NAMED 1934-09-08 09:00:00 NR 29.4000 127.300 main 342 201 __________O___ -1 29.4000 127.300 7 26 44
1934244N10139 1934 47 WP MM NOT_NAMED 1934-09-08 12:00:00 NR 30.5122 128.375 main 188 65 __________P___ -1 30.5122 128.375 7 32 37
1934244N10139 1934 47 WP MM NOT_NAMED 1934-09-08 15:00:00 NR 31.9405 129.538 main 65 0 __________P___ -1 31.9405 129.538 7 37 34
1934244N10139 1934 47 WP MM NOT_NAMED 1934-09-08 18:00:00 NR 33.5742 130.784 main 0 0 __________P___ -1 33.5742 130.784 7 40 32
1934244N10139 1934 47 WP MM NOT_NAMED 1934-09-08 21:00:00 NR 35.3000 132.100 main 34 __________O___ -1 35.3000 132.100 7 41 32

Digital Typhoon Data and Search

About IBTrACS Database

This database is a web-friendly format of International Best Track Archive for Climate Stewardship (IBTrACS), a global best track data archive curated by NOAA dating back to 1842.

Updated: 2021-12-03